sensor_id;sensor_type;location;lat;lon;timestamp;temperature;humidity
15617;DHT22;7908;51.688;7.130;2022-08-19T00:01:43;17.50;99.90
15617;DHT22;7908;51.688;7.130;2022-08-19T00:04:22;17.50;99.90
15617;DHT22;7908;51.688;7.130;2022-08-19T00:06:57;17.50;99.90
15617;DHT22;7908;51.688;7.130;2022-08-19T00:09:32;17.40;99.90
15617;DHT22;7908;51.688;7.130;2022-08-19T00:12:03;17.30;99.90
15617;DHT22;7908;51.688;7.130;2022-08-19T00:14:38;17.30;99.90
15617;DHT22;7908;51.688;7.130;2022-08-19T00:17:09;17.30;99.90
15617;DHT22;7908;51.688;7.130;2022-08-19T00:19:39;17.30;99.90
15617;DHT22;7908;51.688;7.130;2022-08-19T00:22:11;17.30;99.90
15617;DHT22;7908;51.688;7.130;2022-08-19T00:24:43;17.20;99.90
15617;DHT22;7908;51.688;7.130;2022-08-19T00:27:17;17.30;99.90
15617;DHT22;7908;51.688;7.130;2022-08-19T00:29:53;17.30;99.90
15617;DHT22;7908;51.688;7.130;2022-08-19T00:32:32;17.30;99.90
15617;DHT22;7908;51.688;7.130;2022-08-19T00:35:01;17.30;99.90
15617;DHT22;7908;51.688;7.130;2022-08-19T00:37:35;17.20;99.90
15617;DHT22;7908;51.688;7.130;2022-08-19T00:40:14;17.20;99.90
15617;DHT22;7908;51.688;7.130;2022-08-19T00:42:44;17.10;99.90
15617;DHT22;7908;51.688;7.130;2022-08-19T00:45:21;17.00;99.90
15617;DHT22;7908;51.688;7.130;2022-08-19T00:47:52;16.90;99.90
15617;DHT22;7908;51.688;7.130;2022-08-19T00:50:24;16.80;99.90
15617;DHT22;7908;51.688;7.130;2022-08-19T00:52:57;16.70;99.90
15617;DHT22;7908;51.688;7.130;2022-08-19T00:55:28;16.80;99.90
15617;DHT22;7908;51.688;7.130;2022-08-19T00:58:09;16.80;99.90
15617;DHT22;7908;51.688;7.130;2022-08-19T01:00:39;16.80;99.90
15617;DHT22;7908;51.688;7.130;2022-08-19T01:03:14;16.70;99.90
15617;DHT22;7908;51.688;7.130;2022-08-19T01:05:47;16.70;99.90
15617;DHT22;7908;51.688;7.130;2022-08-19T01:08:18;16.60;99.90
15617;DHT22;7908;51.688;7.130;2022-08-19T01:10:50;16.50;99.90
15617;DHT22;7908;51.688;7.130;2022-08-19T01:13:25;16.50;99.90
15617;DHT22;7908;51.688;7.130;2022-08-19T01:16:15;16.50;99.90
15617;DHT22;7908;51.688;7.130;2022-08-19T01:18:47;16.60;99.90
15617;DHT22;7908;51.688;7.130;2022-08-19T01:21:20;16.60;99.90
15617;DHT22;7908;51.688;7.130;2022-08-19T01:23:54;16.70;99.90
15617;DHT22;7908;51.688;7.130;2022-08-19T01:26:26;16.60;99.90
15617;DHT22;7908;51.688;7.130;2022-08-19T01:28:59;16.50;99.90
15617;DHT22;7908;51.688;7.130;2022-08-19T01:31:31;16.50;99.90
15617;DHT22;7908;51.688;7.130;2022-08-19T01:34:01;16.50;99.90
15617;DHT22;7908;51.688;7.130;2022-08-19T01:36:36;16.50;99.90
15617;DHT22;7908;51.688;7.130;2022-08-19T01:39:10;16.40;99.90
15617;DHT22;7908;51.688;7.130;2022-08-19T01:41:40;16.30;99.90
15617;DHT22;7908;51.688;7.130;2022-08-19T01:44:10;16.40;99.90
15617;DHT22;7908;51.688;7.130;2022-08-19T01:46:47;16.40;99.90
15617;DHT22;7908;51.688;7.130;2022-08-19T01:49:19;16.40;99.90
15617;DHT22;7908;51.688;7.130;2022-08-19T01:51:51;16.40;99.90
15617;DHT22;7908;51.688;7.130;2022-08-19T01:54:23;16.30;99.90
15617;DHT22;7908;51.688;7.130;2022-08-19T01:56:59;16.20;99.90
15617;DHT22;7908;51.688;7.130;2022-08-19T01:59:29;16.20;99.90
15617;DHT22;7908;51.688;7.130;2022-08-19T02:01:59;16.20;99.90
15617;DHT22;7908;51.688;7.130;2022-08-19T02:04:30;16.20;99.90
15617;DHT22;7908;51.688;7.130;2022-08-19T02:07:01;16.30;99.90
15617;DHT22;7908;51.688;7.130;2022-08-19T02:09:33;16.30;99.90
15617;DHT22;7908;51.688;7.130;2022-08-19T02:12:03;16.30;99.90
15617;DHT22;7908;51.688;7.130;2022-08-19T02:14:34;16.30;99.90
15617;DHT22;7908;51.688;7.130;2022-08-19T02:17:07;16.30;99.90
15617;DHT22;7908;51.688;7.130;2022-08-19T02:19:36;16.40;99.90
15617;DHT22;7908;51.688;7.130;2022-08-19T02:22:07;16.30;99.90
15617;DHT22;7908;51.688;7.130;2022-08-19T02:24:43;16.20;99.90
15617;DHT22;7908;51.688;7.130;2022-08-19T02:27:16;16.20;99.90
15617;DHT22;7908;51.688;7.130;2022-08-19T02:29:50;16.20;99.90
15617;DHT22;7908;51.688;7.130;2022-08-19T02:32:20;16.10;99.90
15617;DHT22;7908;51.688;7.130;2022-08-19T02:34:50;16.10;99.90
15617;DHT22;7908;51.688;7.130;2022-08-19T02:37:19;16.10;99.90
15617;DHT22;7908;51.688;7.130;2022-08-19T02:40:08;16.00;99.90
15617;DHT22;7908;51.688;7.130;2022-08-19T02:42:39;15.90;99.90
15617;DHT22;7908;51.688;7.130;2022-08-19T02:45:10;15.90;99.90
15617;DHT22;7908;51.688;7.130;2022-08-19T02:47:40;15.80;99.90
15617;DHT22;7908;51.688;7.130;2022-08-19T02:50:12;15.80;99.90
15617;DHT22;7908;51.688;7.130;2022-08-19T02:52:42;15.80;99.90
15617;DHT22;7908;51.688;7.130;2022-08-19T02:55:12;15.80;99.90
15617;DHT22;7908;51.688;7.130;2022-08-19T02:57:42;15.80;99.90
15617;DHT22;7908;51.688;7.130;2022-08-19T03:00:14;15.80;99.90
15617;DHT22;7908;51.688;7.130;2022-08-19T03:02:47;15.90;99.90
15617;DHT22;7908;51.688;7.130;2022-08-19T03:05:21;15.90;99.90
15617;DHT22;7908;51.688;7.130;2022-08-19T03:08:11;16.00;99.90
15617;DHT22;7908;51.688;7.130;2022-08-19T03:10:47;16.00;99.90
15617;DHT22;7908;51.688;7.130;2022-08-19T03:13:17;16.00;99.90
15617;DHT22;7908;51.688;7.130;2022-08-19T03:15:48;15.90;99.90
15617;DHT22;7908;51.688;7.130;2022-08-19T03:18:18;15.80;99.90
15617;DHT22;7908;51.688;7.130;2022-08-19T03:20:52;15.90;99.90
15617;DHT22;7908;51.688;7.130;2022-08-19T03:23:23;15.80;99.90
15617;DHT22;7908;51.688;7.130;2022-08-19T03:25:54;15.90;99.90
15617;DHT22;7908;51.688;7.130;2022-08-19T03:28:43;15.90;99.90
15617;DHT22;7908;51.688;7.130;2022-08-19T03:31:20;15.90;99.90
15617;DHT22;7908;51.688;7.130;2022-08-19T03:34:13;15.90;99.90
15617;DHT22;7908;51.688;7.130;2022-08-19T03:36:43;15.80;99.90
15617;DHT22;7908;51.688;7.130;2022-08-19T03:39:13;15.80;99.90
15617;DHT22;7908;51.688;7.130;2022-08-19T03:41:45;15.70;99.90
15617;DHT22;7908;51.688;7.130;2022-08-19T03:44:40;15.60;99.90
15617;DHT22;7908;51.688;7.130;2022-08-19T03:47:14;15.60;99.90
15617;DHT22;7908;51.688;7.130;2022-08-19T03:49:48;15.70;99.90
15617;DHT22;7908;51.688;7.130;2022-08-19T03:52:17;15.70;99.90
15617;DHT22;7908;51.688;7.130;2022-08-19T03:54:46;15.70;99.90
15617;DHT22;7908;51.688;7.130;2022-08-19T03:57:17;15.70;99.90
15617;DHT22;7908;51.688;7.130;2022-08-19T03:59:58;15.70;99.90
15617;DHT22;7908;51.688;7.130;2022-08-19T04:02:40;15.70;99.90
15617;DHT22;7908;51.688;7.130;2022-08-19T04:05:27;15.70;99.90
15617;DHT22;7908;51.688;7.130;2022-08-19T04:07:57;15.60;99.90
15617;DHT22;7908;51.688;7.130;2022-08-19T04:10:35;15.50;99.90
15617;DHT22;7908;51.688;7.130;2022-08-19T04:13:07;15.50;99.90
15617;DHT22;7908;51.688;7.130;2022-08-19T04:15:39;15.50;99.90
15617;DHT22;7908;51.688;7.130;2022-08-19T04:18:10;15.50;99.90
15617;DHT22;7908;51.688;7.130;2022-08-19T04:20:47;15.50;99.90
15617;DHT22;7908;51.688;7.130;2022-08-19T04:23:17;15.50;99.90
15617;DHT22;7908;51.688;7.130;2022-08-19T04:25:47;15.60;99.90
15617;DHT22;7908;51.688;7.130;2022-08-19T04:28:18;15.70;99.90
15617;DHT22;7908;51.688;7.130;2022-08-19T04:30:49;15.80;99.90
15617;DHT22;7908;51.688;7.130;2022-08-19T04:33:24;15.80;99.90
15617;DHT22;7908;51.688;7.130;2022-08-19T04:35:56;15.70;99.90
15617;DHT22;7908;51.688;7.130;2022-08-19T04:38:26;15.70;99.90
15617;DHT22;7908;51.688;7.130;2022-08-19T04:40:56;15.70;99.90
15617;DHT22;7908;51.688;7.130;2022-08-19T04:43:50;15.70;99.90
15617;DHT22;7908;51.688;7.130;2022-08-19T04:46:20;15.70;99.90
15617;DHT22;7908;51.688;7.130;2022-08-19T04:49:07;15.70;99.90
15617;DHT22;7908;51.688;7.130;2022-08-19T04:51:41;15.80;99.90
15617;DHT22;7908;51.688;7.130;2022-08-19T04:54:15;15.80;99.90
15617;DHT22;7908;51.688;7.130;2022-08-19T04:57:05;15.90;99.90
15617;DHT22;7908;51.688;7.130;2022-08-19T04:59:38;15.90;99.90
15617;DHT22;7908;51.688;7.130;2022-08-19T05:02:09;15.80;99.90
15617;DHT22;7908;51.688;7.130;2022-08-19T05:04:38;15.80;99.90
15617;DHT22;7908;51.688;7.130;2022-08-19T05:07:08;15.80;99.90
15617;DHT22;7908;51.688;7.130;2022-08-19T05:09:39;15.90;99.90
15617;DHT22;7908;51.688;7.130;2022-08-19T05:12:27;15.90;99.90
15617;DHT22;7908;51.688;7.130;2022-08-19T05:15:02;16.00;99.90
15617;DHT22;7908;51.688;7.130;2022-08-19T05:17:32;16.00;99.90
15617;DHT22;7908;51.688;7.130;2022-08-19T05:20:06;16.00;99.90
15617;DHT22;7908;51.688;7.130;2022-08-19T05:22:53;16.10;99.90
15617;DHT22;7908;51.688;7.130;2022-08-19T05:25:24;16.20;99.90
15617;DHT22;7908;51.688;7.130;2022-08-19T05:27:54;16.30;99.90
15617;DHT22;7908;51.688;7.130;2022-08-19T05:30:32;16.40;99.90
15617;DHT22;7908;51.688;7.130;2022-08-19T05:33:14;16.40;99.90
15617;DHT22;7908;51.688;7.130;2022-08-19T05:35:43;16.40;99.90
15617;DHT22;7908;51.688;7.130;2022-08-19T05:38:13;16.50;99.90
15617;DHT22;7908;51.688;7.130;2022-08-19T05:40:45;16.60;99.90
15617;DHT22;7908;51.688;7.130;2022-08-19T05:43:16;16.70;99.90
15617;DHT22;7908;51.688;7.130;2022-08-19T05:45:50;16.80;99.90
15617;DHT22;7908;51.688;7.130;2022-08-19T05:48:22;16.90;99.90
15617;DHT22;7908;51.688;7.130;2022-08-19T05:50:54;16.90;99.90
15617;DHT22;7908;51.688;7.130;2022-08-19T05:53:27;17.00;99.90
15617;DHT22;7908;51.688;7.130;2022-08-19T05:55:57;16.90;99.90
15617;DHT22;7908;51.688;7.130;2022-08-19T05:58:30;17.00;99.90
15617;DHT22;7908;51.688;7.130;2022-08-19T06:01:02;17.10;99.90
15617;DHT22;7908;51.688;7.130;2022-08-19T06:03:38;17.10;99.90
15617;DHT22;7908;51.688;7.130;2022-08-19T06:06:16;17.20;99.90
15617;DHT22;7908;51.688;7.130;2022-08-19T06:08:49;17.30;99.90
15617;DHT22;7908;51.688;7.130;2022-08-19T06:11:24;17.40;99.90
15617;DHT22;7908;51.688;7.130;2022-08-19T06:14:03;17.50;99.90
15617;DHT22;7908;51.688;7.130;2022-08-19T06:16:47;17.60;99.90
15617;DHT22;7908;51.688;7.130;2022-08-19T06:19:18;17.80;99.90
15617;DHT22;7908;51.688;7.130;2022-08-19T06:22:07;17.90;99.90
15617;DHT22;7908;51.688;7.130;2022-08-19T06:24:39;18.10;99.90
15617;DHT22;7908;51.688;7.130;2022-08-19T06:27:11;18.30;99.90
15617;DHT22;7908;51.688;7.130;2022-08-19T06:29:44;18.60;99.90
15617;DHT22;7908;51.688;7.130;2022-08-19T06:32:17;18.70;99.90
15617;DHT22;7908;51.688;7.130;2022-08-19T06:34:51;18.80;99.90
15617;DHT22;7908;51.688;7.130;2022-08-19T06:37:25;18.90;99.90
15617;DHT22;7908;51.688;7.130;2022-08-19T06:39:58;19.10;99.90
15617;DHT22;7908;51.688;7.130;2022-08-19T06:42:28;19.20;99.90
15617;DHT22;7908;51.688;7.130;2022-08-19T06:45:01;19.30;99.90
15617;DHT22;7908;51.688;7.130;2022-08-19T06:47:46;19.30;99.90
15617;DHT22;7908;51.688;7.130;2022-08-19T06:50:16;19.40;99.90
15617;DHT22;7908;51.688;7.130;2022-08-19T06:52:54;19.40;99.90
15617;DHT22;7908;51.688;7.130;2022-08-19T06:55:28;19.40;99.90
15617;DHT22;7908;51.688;7.130;2022-08-19T06:58:05;19.40;99.90
15617;DHT22;7908;51.688;7.130;2022-08-19T07:00:35;19.50;99.90
15617;DHT22;7908;51.688;7.130;2022-08-19T07:03:08;19.50;99.90
15617;DHT22;7908;51.688;7.130;2022-08-19T07:05:41;19.60;99.90
15617;DHT22;7908;51.688;7.130;2022-08-19T07:08:18;19.70;99.90
15617;DHT22;7908;51.688;7.130;2022-08-19T07:10:48;19.80;99.90
15617;DHT22;7908;51.688;7.130;2022-08-19T07:13:17;19.90;99.90
15617;DHT22;7908;51.688;7.130;2022-08-19T07:15:53;20.00;99.90
15617;DHT22;7908;51.688;7.130;2022-08-19T07:18:33;20.10;99.90
15617;DHT22;7908;51.688;7.130;2022-08-19T07:21:13;20.30;99.90
15617;DHT22;7908;51.688;7.130;2022-08-19T07:23:45;20.50;99.90
15617;DHT22;7908;51.688;7.130;2022-08-19T07:26:21;20.60;99.90
15617;DHT22;7908;51.688;7.130;2022-08-19T07:28:55;20.70;99.90
15617;DHT22;7908;51.688;7.130;2022-08-19T07:31:34;20.90;99.90
15617;DHT22;7908;51.688;7.130;2022-08-19T07:34:11;21.10;99.90
15617;DHT22;7908;51.688;7.130;2022-08-19T07:36:42;21.20;99.90
15617;DHT22;7908;51.688;7.130;2022-08-19T07:39:18;21.40;99.90
15617;DHT22;7908;51.688;7.130;2022-08-19T07:41:53;21.50;99.90
15617;DHT22;7908;51.688;7.130;2022-08-19T07:44:29;21.60;99.90
15617;DHT22;7908;51.688;7.130;2022-08-19T07:47:04;21.60;99.90
15617;DHT22;7908;51.688;7.130;2022-08-19T07:49:56;21.70;99.90
15617;DHT22;7908;51.688;7.130;2022-08-19T07:52:28;21.80;99.90
15617;DHT22;7908;51.688;7.130;2022-08-19T07:55:00;21.80;99.90
15617;DHT22;7908;51.688;7.130;2022-08-19T07:57:32;21.90;99.90
15617;DHT22;7908;51.688;7.130;2022-08-19T08:00:02;22.00;99.90
15617;DHT22;7908;51.688;7.130;2022-08-19T08:02:32;22.10;99.90
15617;DHT22;7908;51.688;7.130;2022-08-19T08:05:09;22.10;99.90
15617;DHT22;7908;51.688;7.130;2022-08-19T08:08:00;22.10;99.90
15617;DHT22;7908;51.688;7.130;2022-08-19T08:11:03;22.10;99.90
15617;DHT22;7908;51.688;7.130;2022-08-19T08:13:34;22.10;99.90
15617;DHT22;7908;51.688;7.130;2022-08-19T08:16:08;22.10;99.90
15617;DHT22;7908;51.688;7.130;2022-08-19T08:18:46;22.10;99.90
15617;DHT22;7908;51.688;7.130;2022-08-19T08:21:18;22.20;99.90
15617;DHT22;7908;51.688;7.130;2022-08-19T08:23:48;22.30;99.90
15617;DHT22;7908;51.688;7.130;2022-08-19T08:26:26;22.30;99.90
15617;DHT22;7908;51.688;7.130;2022-08-19T08:29:00;22.50;99.90
15617;DHT22;7908;51.688;7.130;2022-08-19T08:31:40;22.60;99.90
15617;DHT22;7908;51.688;7.130;2022-08-19T08:34:13;22.70;99.90
15617;DHT22;7908;51.688;7.130;2022-08-19T08:36:45;22.80;99.90
15617;DHT22;7908;51.688;7.130;2022-08-19T08:39:19;22.90;99.90
15617;DHT22;7908;51.688;7.130;2022-08-19T08:41:57;23.00;99.90
15617;DHT22;7908;51.688;7.130;2022-08-19T08:44:48;23.10;99.90
15617;DHT22;7908;51.688;7.130;2022-08-19T08:47:30;23.20;99.90
15617;DHT22;7908;51.688;7.130;2022-08-19T08:50:10;23.20;99.90
15617;DHT22;7908;51.688;7.130;2022-08-19T08:52:52;23.20;99.90
15617;DHT22;7908;51.688;7.130;2022-08-19T08:55:27;23.30;99.90
15617;DHT22;7908;51.688;7.130;2022-08-19T08:58:05;23.40;99.90
15617;DHT22;7908;51.688;7.130;2022-08-19T09:00:39;23.40;99.90
15617;DHT22;7908;51.688;7.130;2022-08-19T09:03:19;23.40;99.90
15617;DHT22;7908;51.688;7.130;2022-08-19T09:05:59;23.50;99.90
15617;DHT22;7908;51.688;7.130;2022-08-19T09:08:54;23.50;99.90
15617;DHT22;7908;51.688;7.130;2022-08-19T09:11:39;23.50;99.90
15617;DHT22;7908;51.688;7.130;2022-08-19T09:14:26;23.50;99.90
15617;DHT22;7908;51.688;7.130;2022-08-19T09:17:16;23.50;99.90
15617;DHT22;7908;51.688;7.130;2022-08-19T09:19:53;23.50;99.90
15617;DHT22;7908;51.688;7.130;2022-08-19T09:22:23;23.50;99.90
15617;DHT22;7908;51.688;7.130;2022-08-19T09:24:58;23.60;99.90
15617;DHT22;7908;51.688;7.130;2022-08-19T09:27:29;23.70;99.90
15617;DHT22;7908;51.688;7.130;2022-08-19T09:30:15;23.80;99.90
15617;DHT22;7908;51.688;7.130;2022-08-19T09:33:01;23.90;99.90
15617;DHT22;7908;51.688;7.130;2022-08-19T09:35:37;24.00;99.90
15617;DHT22;7908;51.688;7.130;2022-08-19T09:38:21;24.00;99.90
15617;DHT22;7908;51.688;7.130;2022-08-19T09:40:56;24.10;99.90
15617;DHT22;7908;51.688;7.130;2022-08-19T09:43:29;24.20;99.90
15617;DHT22;7908;51.688;7.130;2022-08-19T09:46:10;24.30;99.90
15617;DHT22;7908;51.688;7.130;2022-08-19T09:48:54;24.40;99.90
15617;DHT22;7908;51.688;7.130;2022-08-19T09:51:33;24.50;99.90
15617;DHT22;7908;51.688;7.130;2022-08-19T09:54:06;24.60;99.90
15617;DHT22;7908;51.688;7.130;2022-08-19T09:56:38;24.70;99.90
15617;DHT22;7908;51.688;7.130;2022-08-19T09:59:12;24.70;99.90
15617;DHT22;7908;51.688;7.130;2022-08-19T10:01:45;24.70;99.90
15617;DHT22;7908;51.688;7.130;2022-08-19T10:04:25;24.80;99.90
15617;DHT22;7908;51.688;7.130;2022-08-19T10:07:18;24.80;99.90
15617;DHT22;7908;51.688;7.130;2022-08-19T10:09:58;24.90;99.90
15617;DHT22;7908;51.688;7.130;2022-08-19T10:12:41;25.00;99.90
15617;DHT22;7908;51.688;7.130;2022-08-19T10:15:19;25.30;99.90
15617;DHT22;7908;51.688;7.130;2022-08-19T10:17:58;25.30;99.90
15617;DHT22;7908;51.688;7.130;2022-08-19T10:20:37;25.30;99.90
15617;DHT22;7908;51.688;7.130;2022-08-19T10:23:09;25.30;99.90
15617;DHT22;7908;51.688;7.130;2022-08-19T10:26:03;25.40;99.90
15617;DHT22;7908;51.688;7.130;2022-08-19T10:28:34;25.60;99.90
15617;DHT22;7908;51.688;7.130;2022-08-19T10:31:12;25.80;99.90
15617;DHT22;7908;51.688;7.130;2022-08-19T10:33:48;25.90;99.90
15617;DHT22;7908;51.688;7.130;2022-08-19T10:36:25;25.80;99.90
15617;DHT22;7908;51.688;7.130;2022-08-19T10:39:06;25.80;99.90
15617;DHT22;7908;51.688;7.130;2022-08-19T10:41:41;25.70;99.90
15617;DHT22;7908;51.688;7.130;2022-08-19T10:44:24;25.60;99.90
15617;DHT22;7908;51.688;7.130;2022-08-19T10:47:12;25.50;99.90
15617;DHT22;7908;51.688;7.130;2022-08-19T10:49:51;25.50;99.90
15617;DHT22;7908;51.688;7.130;2022-08-19T10:52:51;25.50;99.90
15617;DHT22;7908;51.688;7.130;2022-08-19T10:55:23;25.40;99.90
15617;DHT22;7908;51.688;7.130;2022-08-19T10:58:20;25.30;99.90
15617;DHT22;7908;51.688;7.130;2022-08-19T11:00:58;25.30;99.90
15617;DHT22;7908;51.688;7.130;2022-08-19T11:03:29;25.20;99.90
15617;DHT22;7908;51.688;7.130;2022-08-19T11:06:03;25.20;99.90
15617;DHT22;7908;51.688;7.130;2022-08-19T11:08:39;25.20;99.90
15617;DHT22;7908;51.688;7.130;2022-08-19T11:11:16;25.20;99.90
15617;DHT22;7908;51.688;7.130;2022-08-19T11:13:59;25.10;99.90
15617;DHT22;7908;51.688;7.130;2022-08-19T11:17:01;25.20;99.90
15617;DHT22;7908;51.688;7.130;2022-08-19T11:19:44;25.30;99.90
15617;DHT22;7908;51.688;7.130;2022-08-19T11:25:12;25.30;99.90
15617;DHT22;7908;51.688;7.130;2022-08-19T11:27:43;25.30;99.90
15617;DHT22;7908;51.688;7.130;2022-08-19T11:30:17;25.40;99.90
15617;DHT22;7908;51.688;7.130;2022-08-19T11:33:02;25.60;99.90
15617;DHT22;7908;51.688;7.130;2022-08-19T11:35:41;25.80;99.90
15617;DHT22;7908;51.688;7.130;2022-08-19T11:38:24;25.80;99.90
15617;DHT22;7908;51.688;7.130;2022-08-19T11:41:10;25.70;99.90
15617;DHT22;7908;51.688;7.130;2022-08-19T11:43:42;25.60;99.90
15617;DHT22;7908;51.688;7.130;2022-08-19T11:46:25;25.60;99.90
15617;DHT22;7908;51.688;7.130;2022-08-19T11:49:06;25.50;99.90
15617;DHT22;7908;51.688;7.130;2022-08-19T11:51:42;25.50;99.90
15617;DHT22;7908;51.688;7.130;2022-08-19T11:54:14;25.60;99.90
15617;DHT22;7908;51.688;7.130;2022-08-19T11:56:49;25.60;99.90
15617;DHT22;7908;51.688;7.130;2022-08-19T11:59:27;25.70;99.90
15617;DHT22;7908;51.688;7.130;2022-08-19T12:01:59;25.80;99.90
15617;DHT22;7908;51.688;7.130;2022-08-19T12:04:36;26.10;99.90
15617;DHT22;7908;51.688;7.130;2022-08-19T12:07:05;26.20;99.90
15617;DHT22;7908;51.688;7.130;2022-08-19T12:09:36;26.50;99.90
15617;DHT22;7908;51.688;7.130;2022-08-19T12:12:14;26.60;99.90
15617;DHT22;7908;51.688;7.130;2022-08-19T12:14:52;26.80;99.90
15617;DHT22;7908;51.688;7.130;2022-08-19T12:17:28;27.00;99.90
15617;DHT22;7908;51.688;7.130;2022-08-19T12:20:06;27.10;99.90
15617;DHT22;7908;51.688;7.130;2022-08-19T12:22:43;27.20;99.90
15617;DHT22;7908;51.688;7.130;2022-08-19T12:25:27;27.30;99.90
15617;DHT22;7908;51.688;7.130;2022-08-19T12:28:07;27.40;99.90
15617;DHT22;7908;51.688;7.130;2022-08-19T12:30:42;27.40;99.90
15617;DHT22;7908;51.688;7.130;2022-08-19T12:33:12;27.50;99.90
15617;DHT22;7908;51.688;7.130;2022-08-19T12:35:46;27.40;99.90
15617;DHT22;7908;51.688;7.130;2022-08-19T12:38:24;27.30;99.90
15617;DHT22;7908;51.688;7.130;2022-08-19T12:40:59;27.30;99.90
15617;DHT22;7908;51.688;7.130;2022-08-19T12:43:35;27.30;99.90
15617;DHT22;7908;51.688;7.130;2022-08-19T12:46:20;27.10;99.90
15617;DHT22;7908;51.688;7.130;2022-08-19T12:48:55;27.10;99.90
15617;DHT22;7908;51.688;7.130;2022-08-19T12:51:32;27.20;99.90
15617;DHT22;7908;51.688;7.130;2022-08-19T12:54:05;27.30;99.90
15617;DHT22;7908;51.688;7.130;2022-08-19T12:56:36;27.30;99.90
15617;DHT22;7908;51.688;7.130;2022-08-19T12:59:09;27.40;99.90
15617;DHT22;7908;51.688;7.130;2022-08-19T13:01:49;27.40;99.90
15617;DHT22;7908;51.688;7.130;2022-08-19T13:04:25;27.60;99.90
15617;DHT22;7908;51.688;7.130;2022-08-19T13:07:01;27.70;99.90
15617;DHT22;7908;51.688;7.130;2022-08-19T13:09:39;27.80;99.40
15617;DHT22;7908;51.688;7.130;2022-08-19T13:12:17;27.70;98.10
15617;DHT22;7908;51.688;7.130;2022-08-19T13:14:58;27.70;97.60
15617;DHT22;7908;51.688;7.130;2022-08-19T13:17:28;27.70;98.40
15617;DHT22;7908;51.688;7.130;2022-08-19T13:20:04;27.80;98.60
15617;DHT22;7908;51.688;7.130;2022-08-19T13:22:42;27.70;98.40
15617;DHT22;7908;51.688;7.130;2022-08-19T13:25:15;27.70;98.10
15617;DHT22;7908;51.688;7.130;2022-08-19T13:28:03;27.80;98.30
15617;DHT22;7908;51.688;7.130;2022-08-19T13:30:51;27.90;97.60
15617;DHT22;7908;51.688;7.130;2022-08-19T13:33:38;27.90;97.90
15617;DHT22;7908;51.688;7.130;2022-08-19T13:36:17;28.00;97.60
15617;DHT22;7908;51.688;7.130;2022-08-19T13:38:51;28.00;97.50
15617;DHT22;7908;51.688;7.130;2022-08-19T13:41:25;28.10;96.60
15617;DHT22;7908;51.688;7.130;2022-08-19T13:46:54;28.00;96.40
15617;DHT22;7908;51.688;7.130;2022-08-19T13:49:24;28.00;96.10
15617;DHT22;7908;51.688;7.130;2022-08-19T13:51:59;27.90;95.90
15617;DHT22;7908;51.688;7.130;2022-08-19T13:54:33;27.80;96.10
15617;DHT22;7908;51.688;7.130;2022-08-19T13:57:10;27.80;96.50
15617;DHT22;7908;51.688;7.130;2022-08-19T13:59:44;27.80;96.20
15617;DHT22;7908;51.688;7.130;2022-08-19T14:02:15;27.70;96.10
15617;DHT22;7908;51.688;7.130;2022-08-19T14:04:49;27.70;95.70
15617;DHT22;7908;51.688;7.130;2022-08-19T14:07:29;27.80;95.50
15617;DHT22;7908;51.688;7.130;2022-08-19T14:10:15;27.80;95.70
15617;DHT22;7908;51.688;7.130;2022-08-19T14:12:45;27.90;95.90
15617;DHT22;7908;51.688;7.130;2022-08-19T14:15:20;28.00;96.00
15617;DHT22;7908;51.688;7.130;2022-08-19T14:17:57;28.20;95.30
15617;DHT22;7908;51.688;7.130;2022-08-19T14:20:37;28.20;95.40
15617;DHT22;7908;51.688;7.130;2022-08-19T14:23:09;28.20;95.60
15617;DHT22;7908;51.688;7.130;2022-08-19T14:25:41;28.20;95.80
15617;DHT22;7908;51.688;7.130;2022-08-19T14:28:17;28.30;96.10
15617;DHT22;7908;51.688;7.130;2022-08-19T14:30:54;28.30;95.30
15617;DHT22;7908;51.688;7.130;2022-08-19T14:33:32;28.30;95.00
15617;DHT22;7908;51.688;7.130;2022-08-19T14:36:02;28.20;95.20
15617;DHT22;7908;51.688;7.130;2022-08-19T14:38:47;28.20;95.30
15617;DHT22;7908;51.688;7.130;2022-08-19T14:41:25;28.10;95.30
15617;DHT22;7908;51.688;7.130;2022-08-19T14:44:03;28.00;95.30
15617;DHT22;7908;51.688;7.130;2022-08-19T14:50:02;27.90;96.20
15617;DHT22;7908;51.688;7.130;2022-08-19T14:52:48;27.80;96.30
15617;DHT22;7908;51.688;7.130;2022-08-19T14:55:20;27.60;96.40
15617;DHT22;7908;51.688;7.130;2022-08-19T14:58:02;27.50;96.40
15617;DHT22;7908;51.688;7.130;2022-08-19T15:00:35;27.50;96.90
15617;DHT22;7908;51.688;7.130;2022-08-19T15:03:06;27.50;97.20
15617;DHT22;7908;51.688;7.130;2022-08-19T15:05:37;27.60;97.40
15617;DHT22;7908;51.688;7.130;2022-08-19T15:08:17;27.60;97.20
15617;DHT22;7908;51.688;7.130;2022-08-19T15:10:59;27.80;97.30
15617;DHT22;7908;51.688;7.130;2022-08-19T15:13:32;27.80;96.20
15617;DHT22;7908;51.688;7.130;2022-08-19T15:16:13;27.70;96.10
15617;DHT22;7908;51.688;7.130;2022-08-19T15:18:50;27.70;96.80
15617;DHT22;7908;51.688;7.130;2022-08-19T15:21:34;27.70;96.60
15617;DHT22;7908;51.688;7.130;2022-08-19T15:24:09;27.70;95.90
15617;DHT22;7908;51.688;7.130;2022-08-19T15:26:44;27.80;96.00
15617;DHT22;7908;51.688;7.130;2022-08-19T15:29:24;27.80;95.60
15617;DHT22;7908;51.688;7.130;2022-08-19T15:31:59;27.80;95.70
15617;DHT22;7908;51.688;7.130;2022-08-19T15:34:34;27.70;95.80
15617;DHT22;7908;51.688;7.130;2022-08-19T15:37:08;27.80;96.20
15617;DHT22;7908;51.688;7.130;2022-08-19T15:39:41;27.90;94.90
15617;DHT22;7908;51.688;7.130;2022-08-19T15:42:15;27.90;95.10
15617;DHT22;7908;51.688;7.130;2022-08-19T15:44:56;27.90;94.80
15617;DHT22;7908;51.688;7.130;2022-08-19T15:47:30;28.00;95.10
15617;DHT22;7908;51.688;7.130;2022-08-19T15:50:06;27.90;94.10
15617;DHT22;7908;51.688;7.130;2022-08-19T15:52:51;27.80;93.90
15617;DHT22;7908;51.688;7.130;2022-08-19T15:55:26;27.70;94.30
15617;DHT22;7908;51.688;7.130;2022-08-19T15:58:01;27.70;94.20
15617;DHT22;7908;51.688;7.130;2022-08-19T16:00:56;27.70;94.60
15617;DHT22;7908;51.688;7.130;2022-08-19T16:03:51;27.80;94.20
15617;DHT22;7908;51.688;7.130;2022-08-19T16:06:43;27.80;93.30
15617;DHT22;7908;51.688;7.130;2022-08-19T16:09:24;27.70;93.00
15617;DHT22;7908;51.688;7.130;2022-08-19T16:11:59;27.60;93.30
15617;DHT22;7908;51.688;7.130;2022-08-19T16:14:38;27.50;93.20
15617;DHT22;7908;51.688;7.130;2022-08-19T16:17:10;27.50;93.50
15617;DHT22;7908;51.688;7.130;2022-08-19T16:19:42;27.50;93.60
15617;DHT22;7908;51.688;7.130;2022-08-19T16:22:29;27.50;93.50
15617;DHT22;7908;51.688;7.130;2022-08-19T16:25:12;27.50;93.40
15617;DHT22;7908;51.688;7.130;2022-08-19T16:27:44;27.50;93.60
15617;DHT22;7908;51.688;7.130;2022-08-19T16:33:20;27.70;93.30
15617;DHT22;7908;51.688;7.130;2022-08-19T16:36:05;27.70;93.90
15617;DHT22;7908;51.688;7.130;2022-08-19T16:38:59;27.70;93.70
15617;DHT22;7908;51.688;7.130;2022-08-19T16:41:42;27.70;94.30
15617;DHT22;7908;51.688;7.130;2022-08-19T16:44:18;27.70;94.50
15617;DHT22;7908;51.688;7.130;2022-08-19T16:47:02;27.70;94.90
15617;DHT22;7908;51.688;7.130;2022-08-19T16:49:48;27.70;94.90
15617;DHT22;7908;51.688;7.130;2022-08-19T16:52:22;27.70;94.60
15617;DHT22;7908;51.688;7.130;2022-08-19T16:54:56;27.60;94.70